sensor_id;sensor_type;location;lat;lon;timestamp;P1;durP1;ratioP1;P2;durP2;ratioP2
18280;SDS011;9266;51.132;17.062;2023-04-25T00:00:44;3.00;;;2.70;;
18280;SDS011;9266;51.132;17.062;2023-04-25T00:03:11;2.60;;;2.40;;
18280;SDS011;9266;51.132;17.062;2023-04-25T00:05:40;5.10;;;2.30;;
18280;SDS011;9266;51.132;17.062;2023-04-25T00:08:07;5.60;;;2.33;;
18280;SDS011;9266;51.132;17.062;2023-04-25T00:10:34;2.43;;;2.23;;
18280;SDS011;9266;51.132;17.062;2023-04-25T00:13:01;4.40;;;2.50;;
18280;SDS011;9266;51.132;17.062;2023-04-25T00:15:28;2.33;;;2.13;;
18280;SDS011;9266;51.132;17.062;2023-04-25T00:17:56;3.07;;;2.10;;
18280;SDS011;9266;51.132;17.062;2023-04-25T00:20:23;5.63;;;2.43;;
18280;SDS011;9266;51.132;17.062;2023-04-25T00:22:52;2.77;;;2.10;;
18280;SDS011;9266;51.132;17.062;2023-04-25T00:25:19;2.77;;;2.10;;
18280;SDS011;9266;51.132;17.062;2023-04-25T00:27:46;3.00;;;2.13;;
18280;SDS011;9266;51.132;17.062;2023-04-25T00:30:13;4.10;;;2.10;;
18280;SDS011;9266;51.132;17.062;2023-04-25T00:32:41;2.20;;;2.00;;
18280;SDS011;9266;51.132;17.062;2023-04-25T00:35:08;2.47;;;2.07;;
18280;SDS011;9266;51.132;17.062;2023-04-25T00:37:36;2.70;;;2.10;;
18280;SDS011;9266;51.132;17.062;2023-04-25T00:40:06;2.37;;;2.10;;
18280;SDS011;9266;51.132;17.062;2023-04-25T00:42:34;2.30;;;2.10;;
18280;SDS011;9266;51.132;17.062;2023-04-25T00:45:03;3.93;;;2.00;;
18280;SDS011;9266;51.132;17.062;2023-04-25T00:47:32;2.40;;;2.20;;
18280;SDS011;9266;51.132;17.062;2023-04-25T00:49:59;3.40;;;2.00;;
18280;SDS011;9266;51.132;17.062;2023-04-25T00:52:26;2.37;;;2.10;;
18280;SDS011;9266;51.132;17.062;2023-04-25T00:54:53;2.40;;;2.20;;
18280;SDS011;9266;51.132;17.062;2023-04-25T00:57:22;3.10;;;2.30;;
18280;SDS011;9266;51.132;17.062;2023-04-25T00:59:49;4.43;;;2.30;;
18280;SDS011;9266;51.132;17.062;2023-04-25T01:02:18;2.63;;;2.20;;
18280;SDS011;9266;51.132;17.062;2023-04-25T01:04:47;4.37;;;2.40;;
18280;SDS011;9266;51.132;17.062;2023-04-25T01:07:14;3.00;;;2.30;;
18280;SDS011;9266;51.132;17.062;2023-04-25T01:09:41;2.33;;;2.13;;
18280;SDS011;9266;51.132;17.062;2023-04-25T01:12:08;2.30;;;2.10;;
18280;SDS011;9266;51.132;17.062;2023-04-25T01:14:37;3.40;;;2.50;;
18280;SDS011;9266;51.132;17.062;2023-04-25T01:17:04;2.67;;;2.40;;
18280;SDS011;9266;51.132;17.062;2023-04-25T01:19:32;3.10;;;2.80;;
18280;SDS011;9266;51.132;17.062;2023-04-25T01:22:01;2.60;;;2.40;;
18280;SDS011;9266;51.132;17.062;2023-04-25T01:24:28;4.73;;;2.77;;
18280;SDS011;9266;51.132;17.062;2023-04-25T01:26:55;3.13;;;2.70;;
18280;SDS011;9266;51.132;17.062;2023-04-25T01:29:23;3.07;;;2.60;;
18280;SDS011;9266;51.132;17.062;2023-04-25T01:31:50;3.00;;;2.70;;
18280;SDS011;9266;51.132;17.062;2023-04-25T01:34:18;4.27;;;2.90;;
18280;SDS011;9266;51.132;17.062;2023-04-25T01:36:45;3.17;;;2.83;;
18280;SDS011;9266;51.132;17.062;2023-04-25T01:39:17;4.20;;;2.90;;
18280;SDS011;9266;51.132;17.062;2023-04-25T01:41:44;3.20;;;2.90;;
18280;SDS011;9266;51.132;17.062;2023-04-25T01:44:11;3.93;;;3.27;;
18280;SDS011;9266;51.132;17.062;2023-04-25T01:46:39;4.00;;;3.03;;
18280;SDS011;9266;51.132;17.062;2023-04-25T01:49:07;4.10;;;3.47;;
18280;SDS011;9266;51.132;17.062;2023-04-25T01:51:34;4.07;;;3.03;;
18280;SDS011;9266;51.132;17.062;2023-04-25T01:54:01;3.43;;;3.13;;
18280;SDS011;9266;51.132;17.062;2023-04-25T01:56:31;4.23;;;3.50;;
18280;SDS011;9266;51.132;17.062;2023-04-25T01:58:58;3.90;;;3.50;;
18280;SDS011;9266;51.132;17.062;2023-04-25T02:01:26;4.77;;;3.47;;
18280;SDS011;9266;51.132;17.062;2023-04-25T02:03:53;3.90;;;3.60;;
18280;SDS011;9266;51.132;17.062;2023-04-25T02:06:20;4.73;;;3.67;;
18280;SDS011;9266;51.132;17.062;2023-04-25T02:08:47;4.27;;;3.80;;
18280;SDS011;9266;51.132;17.062;2023-04-25T02:11:14;5.93;;;3.93;;
18280;SDS011;9266;51.132;17.062;2023-04-25T02:13:42;5.27;;;3.90;;
18280;SDS011;9266;51.132;17.062;2023-04-25T02:16:09;5.00;;;3.70;;
18280;SDS011;9266;51.132;17.062;2023-04-25T02:18:36;5.17;;;3.70;;
18280;SDS011;9266;51.132;17.062;2023-04-25T02:21:04;4.40;;;3.73;;
18280;SDS011;9266;51.132;17.062;2023-04-25T02:23:31;5.00;;;3.90;;
18280;SDS011;9266;51.132;17.062;2023-04-25T02:25:58;4.43;;;3.67;;
18280;SDS011;9266;51.132;17.062;2023-04-25T02:28:25;5.47;;;4.27;;
18280;SDS011;9266;51.132;17.062;2023-04-25T02:30:53;5.27;;;4.00;;
18280;SDS011;9266;51.132;17.062;2023-04-25T02:33:20;4.90;;;3.73;;
18280;SDS011;9266;51.132;17.062;2023-04-25T02:35:47;5.93;;;4.20;;
18280;SDS011;9266;51.132;17.062;2023-04-25T02:38:14;4.10;;;3.70;;
18280;SDS011;9266;51.132;17.062;2023-04-25T02:40:41;5.17;;;4.17;;
18280;SDS011;9266;51.132;17.062;2023-04-25T02:43:08;5.17;;;4.10;;
18280;SDS011;9266;51.132;17.062;2023-04-25T02:45:35;5.07;;;4.00;;
18280;SDS011;9266;51.132;17.062;2023-04-25T02:48:04;5.40;;;4.63;;
18280;SDS011;9266;51.132;17.062;2023-04-25T02:50:31;5.70;;;4.67;;
18280;SDS011;9266;51.132;17.062;2023-04-25T02:52:58;6.37;;;4.90;;
18280;SDS011;9266;51.132;17.062;2023-04-25T02:55:25;5.30;;;4.70;;
18280;SDS011;9266;51.132;17.062;2023-04-25T02:57:52;5.17;;;4.67;;
18280;SDS011;9266;51.132;17.062;2023-04-25T03:00:21;6.30;;;4.80;;
18280;SDS011;9266;51.132;17.062;2023-04-25T03:02:48;6.13;;;4.47;;
18280;SDS011;9266;51.132;17.062;2023-04-25T03:05:17;7.00;;;4.80;;
18280;SDS011;9266;51.132;17.062;2023-04-25T03:07:44;7.27;;;5.10;;
18280;SDS011;9266;51.132;17.062;2023-04-25T03:10:12;8.27;;;4.80;;
18280;SDS011;9266;51.132;17.062;2023-04-25T03:12:39;5.03;;;4.50;;
18280;SDS011;9266;51.132;17.062;2023-04-25T03:15:06;6.87;;;4.87;;
18280;SDS011;9266;51.132;17.062;2023-04-25T03:17:33;6.67;;;5.00;;
18280;SDS011;9266;51.132;17.062;2023-04-25T03:20:00;7.77;;;5.30;;
18280;SDS011;9266;51.132;17.062;2023-04-25T03:22:30;5.97;;;5.37;;
18280;SDS011;9266;51.132;17.062;2023-04-25T03:24:57;8.10;;;5.90;;
18280;SDS011;9266;51.132;17.062;2023-04-25T03:27:24;6.83;;;5.03;;
18280;SDS011;9266;51.132;17.062;2023-04-25T03:29:51;7.03;;;5.00;;
18280;SDS011;9266;51.132;17.062;2023-04-25T03:32:18;7.27;;;5.23;;
18280;SDS011;9266;51.132;17.062;2023-04-25T03:34:46;6.10;;;5.17;;
18280;SDS011;9266;51.132;17.062;2023-04-25T03:37:13;7.20;;;6.00;;
18280;SDS011;9266;51.132;17.062;2023-04-25T03:39:42;8.97;;;5.77;;
18280;SDS011;9266;51.132;17.062;2023-04-25T03:42:09;6.80;;;6.10;;
18280;SDS011;9266;51.132;17.062;2023-04-25T03:44:36;7.90;;;6.50;;
18280;SDS011;9266;51.132;17.062;2023-04-25T03:47:03;8.00;;;6.37;;
18280;SDS011;9266;51.132;17.062;2023-04-25T03:49:30;11.47;;;6.67;;
18280;SDS011;9266;51.132;17.062;2023-04-25T03:51:58;9.73;;;6.40;;
18280;SDS011;9266;51.132;17.062;2023-04-25T03:54:25;10.17;;;6.80;;
18280;SDS011;9266;51.132;17.062;2023-04-25T03:56:54;8.27;;;6.87;;
18280;SDS011;9266;51.132;17.062;2023-04-25T03:59:21;9.87;;;7.27;;
18280;SDS011;9266;51.132;17.062;2023-04-25T04:01:48;8.13;;;6.20;;
18280;SDS011;9266;51.132;17.062;2023-04-25T04:04:15;9.30;;;7.07;;
18280;SDS011;9266;51.132;17.062;2023-04-25T04:06:42;7.37;;;6.40;;
18280;SDS011;9266;51.132;17.062;2023-04-25T04:09:09;7.40;;;6.20;;
18280;SDS011;9266;51.132;17.062;2023-04-25T04:11:37;8.53;;;6.33;;
18280;SDS011;9266;51.132;17.062;2023-04-25T04:14:06;10.67;;;6.57;;
18280;SDS011;9266;51.132;17.062;2023-04-25T04:16:35;9.17;;;6.50;;
18280;SDS011;9266;51.132;17.062;2023-04-25T04:19:02;7.23;;;6.40;;
18280;SDS011;9266;51.132;17.062;2023-04-25T04:21:29;9.20;;;6.80;;
18280;SDS011;9266;51.132;17.062;2023-04-25T04:23:57;8.23;;;6.70;;
18280;SDS011;9266;51.132;17.062;2023-04-25T04:26:25;8.50;;;7.03;;
18280;SDS011;9266;51.132;17.062;2023-04-25T04:28:52;9.63;;;6.73;;
18280;SDS011;9266;51.132;17.062;2023-04-25T04:31:21;8.87;;;6.50;;
18280;SDS011;9266;51.132;17.062;2023-04-25T04:33:48;7.83;;;6.77;;
18280;SDS011;9266;51.132;17.062;2023-04-25T04:36:15;8.63;;;6.87;;
18280;SDS011;9266;51.132;17.062;2023-04-25T04:38:44;7.83;;;6.90;;
18280;SDS011;9266;51.132;17.062;2023-04-25T04:41:11;9.00;;;7.20;;
18280;SDS011;9266;51.132;17.062;2023-04-25T04:43:38;7.47;;;6.53;;
18280;SDS011;9266;51.132;17.062;2023-04-25T04:46:06;9.00;;;6.53;;
18280;SDS011;9266;51.132;17.062;2023-04-25T04:48:36;8.80;;;6.50;;
18280;SDS011;9266;51.132;17.062;2023-04-25T04:51:05;8.50;;;7.13;;
18280;SDS011;9266;51.132;17.062;2023-04-25T04:53:32;8.33;;;6.90;;
18280;SDS011;9266;51.132;17.062;2023-04-25T04:55:59;9.13;;;6.93;;
18280;SDS011;9266;51.132;17.062;2023-04-25T04:58:26;7.93;;;6.70;;
18280;SDS011;9266;51.132;17.062;2023-04-25T05:00:54;9.17;;;7.47;;
18280;SDS011;9266;51.132;17.062;2023-04-25T05:03:21;11.33;;;8.20;;
18280;SDS011;9266;51.132;17.062;2023-04-25T05:05:50;10.30;;;6.90;;
18280;SDS011;9266;51.132;17.062;2023-04-25T05:08:17;8.63;;;6.77;;
18280;SDS011;9266;51.132;17.062;2023-04-25T05:10:44;7.80;;;7.00;;
18280;SDS011;9266;51.132;17.062;2023-04-25T05:13:11;9.33;;;6.90;;
18280;SDS011;9266;51.132;17.062;2023-04-25T05:15:38;9.70;;;6.87;;
18280;SDS011;9266;51.132;17.062;2023-04-25T05:18:05;7.57;;;6.53;;
18280;SDS011;9266;51.132;17.062;2023-04-25T05:20:32;7.00;;;6.30;;
18280;SDS011;9266;51.132;17.062;2023-04-25T05:23:00;10.47;;;6.77;;
18280;SDS011;9266;51.132;17.062;2023-04-25T05:25:27;7.37;;;6.27;;
18280;SDS011;9266;51.132;17.062;2023-04-25T05:27:54;7.57;;;5.77;;
18280;SDS011;9266;51.132;17.062;2023-04-25T05:30:21;9.13;;;5.83;;
18280;SDS011;9266;51.132;17.062;2023-04-25T05:32:49;7.23;;;6.20;;
18280;SDS011;9266;51.132;17.062;2023-04-25T05:35:16;7.77;;;5.83;;
18280;SDS011;9266;51.132;17.062;2023-04-25T05:37:43;6.70;;;5.80;;
18280;SDS011;9266;51.132;17.062;2023-04-25T05:40:11;7.77;;;5.33;;
18280;SDS011;9266;51.132;17.062;2023-04-25T05:42:38;7.83;;;6.10;;
18280;SDS011;9266;51.132;17.062;2023-04-25T05:45:06;7.23;;;5.87;;
18280;SDS011;9266;51.132;17.062;2023-04-25T05:47:33;9.67;;;5.90;;
18280;SDS011;9266;51.132;17.062;2023-04-25T05:50:00;7.50;;;6.10;;
18280;SDS011;9266;51.132;17.062;2023-04-25T05:52:27;9.40;;;6.87;;
18280;SDS011;9266;51.132;17.062;2023-04-25T05:54:54;8.77;;;7.63;;
18280;SDS011;9266;51.132;17.062;2023-04-25T05:57:23;8.13;;;6.20;;
18280;SDS011;9266;51.132;17.062;2023-04-25T05:59:51;8.40;;;5.97;;
18280;SDS011;9266;51.132;17.062;2023-04-25T06:02:19;8.83;;;6.60;;
18280;SDS011;9266;51.132;17.062;2023-04-25T06:04:46;7.87;;;5.80;;
18280;SDS011;9266;51.132;17.062;2023-04-25T06:07:14;7.27;;;5.40;;
18280;SDS011;9266;51.132;17.062;2023-04-25T06:09:41;7.97;;;5.90;;
18280;SDS011;9266;51.132;17.062;2023-04-25T06:12:08;9.67;;;5.53;;
18280;SDS011;9266;51.132;17.062;2023-04-25T06:14:36;8.67;;;6.80;;
18280;SDS011;9266;51.132;17.062;2023-04-25T06:17:04;7.03;;;5.40;;
18280;SDS011;9266;51.132;17.062;2023-04-25T06:19:33;8.10;;;5.20;;
18280;SDS011;9266;51.132;17.062;2023-04-25T06:22:01;9.97;;;6.23;;
18280;SDS011;9266;51.132;17.062;2023-04-25T06:24:28;5.63;;;4.90;;
18280;SDS011;9266;51.132;17.062;2023-04-25T06:26:55;5.13;;;4.63;;
18280;SDS011;9266;51.132;17.062;2023-04-25T06:29:22;8.00;;;5.07;;
18280;SDS011;9266;51.132;17.062;2023-04-25T06:31:51;9.00;;;5.27;;
18280;SDS011;9266;51.132;17.062;2023-04-25T06:34:18;6.03;;;4.80;;
18280;SDS011;9266;51.132;17.062;2023-04-25T06:36:45;7.00;;;4.97;;
18280;SDS011;9266;51.132;17.062;2023-04-25T06:39:12;8.00;;;5.60;;
18280;SDS011;9266;51.132;17.062;2023-04-25T06:41:39;7.07;;;4.10;;
18280;SDS011;9266;51.132;17.062;2023-04-25T06:44:06;6.20;;;4.13;;
18280;SDS011;9266;51.132;17.062;2023-04-25T06:46:33;5.67;;;4.20;;
18280;SDS011;9266;51.132;17.062;2023-04-25T06:49:03;6.57;;;4.30;;
18280;SDS011;9266;51.132;17.062;2023-04-25T06:51:30;4.20;;;3.80;;
18280;SDS011;9266;51.132;17.062;2023-04-25T06:53:57;5.60;;;3.97;;
18280;SDS011;9266;51.132;17.062;2023-04-25T06:56:24;5.57;;;4.43;;
18280;SDS011;9266;51.132;17.062;2023-04-25T06:58:50;6.23;;;4.07;;
18280;SDS011;9266;51.132;17.062;2023-04-25T07:01:17;6.83;;;5.63;;
18280;SDS011;9266;51.132;17.062;2023-04-25T07:03:44;6.40;;;4.10;;
18280;SDS011;9266;51.132;17.062;2023-04-25T07:06:15;4.70;;;3.70;;
18280;SDS011;9266;51.132;17.062;2023-04-25T07:08:42;6.30;;;3.93;;
18280;SDS011;9266;51.132;17.062;2023-04-25T07:11:09;5.77;;;3.40;;
18280;SDS011;9266;51.132;17.062;2023-04-25T07:13:36;6.83;;;3.47;;
18280;SDS011;9266;51.132;17.062;2023-04-25T07:16:03;7.33;;;3.90;;
18280;SDS011;9266;51.132;17.062;2023-04-25T07:18:31;4.50;;;3.17;;
18280;SDS011;9266;51.132;17.062;2023-04-25T07:20:58;7.37;;;3.37;;
18280;SDS011;9266;51.132;17.062;2023-04-25T07:23:26;4.70;;;3.23;;
18280;SDS011;9266;51.132;17.062;2023-04-25T07:25:53;5.40;;;3.40;;
18280;SDS011;9266;51.132;17.062;2023-04-25T07:28:21;5.53;;;2.97;;
18280;SDS011;9266;51.132;17.062;2023-04-25T07:30:48;5.37;;;3.10;;
18280;SDS011;9266;51.132;17.062;2023-04-25T07:33:15;5.77;;;3.37;;
18280;SDS011;9266;51.132;17.062;2023-04-25T07:35:42;5.30;;;3.20;;
18280;SDS011;9266;51.132;17.062;2023-04-25T07:38:09;5.43;;;3.47;;
18280;SDS011;9266;51.132;17.062;2023-04-25T07:40:37;6.33;;;3.63;;
18280;SDS011;9266;51.132;17.062;2023-04-25T07:43:05;11.60;;;4.93;;
18280;SDS011;9266;51.132;17.062;2023-04-25T07:45:32;6.13;;;3.83;;
18280;SDS011;9266;51.132;17.062;2023-04-25T07:47:59;8.53;;;4.33;;
18280;SDS011;9266;51.132;17.062;2023-04-25T07:50:26;5.87;;;4.07;;
18280;SDS011;9266;51.132;17.062;2023-04-25T07:52:53;7.57;;;4.20;;
18280;SDS011;9266;51.132;17.062;2023-04-25T07:55:20;7.13;;;4.60;;
18280;SDS011;9266;51.132;17.062;2023-04-25T07:57:48;5.83;;;4.43;;
18280;SDS011;9266;51.132;17.062;2023-04-25T08:00:15;6.97;;;4.33;;
18280;SDS011;9266;51.132;17.062;2023-04-25T08:02:43;5.90;;;3.97;;
18280;SDS011;9266;51.132;17.062;2023-04-25T08:05:09;4.97;;;4.40;;
18280;SDS011;9266;51.132;17.062;2023-04-25T08:07:39;7.87;;;4.60;;
18280;SDS011;9266;51.132;17.062;2023-04-25T08:10:07;7.73;;;5.67;;
18280;SDS011;9266;51.132;17.062;2023-04-25T08:12:34;7.67;;;5.30;;
18280;SDS011;9266;51.132;17.062;2023-04-25T08:15:03;8.03;;;6.07;;
18280;SDS011;9266;51.132;17.062;2023-04-25T08:17:31;6.33;;;5.53;;
18280;SDS011;9266;51.132;17.062;2023-04-25T08:19:58;8.67;;;6.50;;
18280;SDS011;9266;51.132;17.062;2023-04-25T08:22:25;10.03;;;6.30;;
18280;SDS011;9266;51.132;17.062;2023-04-25T08:24:52;11.93;;;6.80;;
18280;SDS011;9266;51.132;17.062;2023-04-25T08:27:19;7.30;;;6.40;;
18280;SDS011;9266;51.132;17.062;2023-04-25T08:29:47;8.23;;;6.40;;
18280;SDS011;9266;51.132;17.062;2023-04-25T08:32:15;8.87;;;6.37;;
18280;SDS011;9266;51.132;17.062;2023-04-25T08:34:42;9.20;;;6.77;;
18280;SDS011;9266;51.132;17.062;2023-04-25T08:37:09;9.63;;;6.83;;
18280;SDS011;9266;51.132;17.062;2023-04-25T08:39:36;8.37;;;5.80;;
18280;SDS011;9266;51.132;17.062;2023-04-25T08:42:05;7.40;;;5.93;;
18280;SDS011;9266;51.132;17.062;2023-04-25T08:44:33;8.00;;;6.27;;
18280;SDS011;9266;51.132;17.062;2023-04-25T08:47:01;8.60;;;6.30;;
18280;SDS011;9266;51.132;17.062;2023-04-25T08:49:30;7.70;;;6.03;;
18280;SDS011;9266;51.132;17.062;2023-04-25T08:51:59;10.20;;;5.93;;
18280;SDS011;9266;51.132;17.062;2023-04-25T08:54:27;8.23;;;5.93;;
18280;SDS011;9266;51.132;17.062;2023-04-25T08:56:56;6.30;;;5.37;;
18280;SDS011;9266;51.132;17.062;2023-04-25T08:59:24;8.50;;;5.60;;
18280;SDS011;9266;51.132;17.062;2023-04-25T09:01:52;7.80;;;5.57;;
18280;SDS011;9266;51.132;17.062;2023-04-25T09:04:19;6.50;;;5.27;;
18280;SDS011;9266;51.132;17.062;2023-04-25T09:06:47;7.97;;;6.63;;
18280;SDS011;9266;51.132;17.062;2023-04-25T09:09:15;8.83;;;5.97;;
18280;SDS011;9266;51.132;17.062;2023-04-25T09:11:43;8.33;;;5.80;;
18280;SDS011;9266;51.132;17.062;2023-04-25T09:14:10;7.47;;;5.77;;
18280;SDS011;9266;51.132;17.062;2023-04-25T09:19:28;6.30;;;5.70;;
18280;SDS011;9266;51.132;17.062;2023-04-25T09:21:58;6.37;;;5.67;;
18280;SDS011;9266;51.132;17.062;2023-04-25T09:24:31;7.87;;;5.87;;
18280;SDS011;9266;51.132;17.062;2023-04-25T09:27:05;7.43;;;5.97;;
18280;SDS011;9266;51.132;17.062;2023-04-25T09:29:33;7.17;;;6.00;;
18280;SDS011;9266;51.132;17.062;2023-04-25T09:32:15;8.90;;;5.90;;
18280;SDS011;9266;51.132;17.062;2023-04-25T09:34:44;7.03;;;6.30;;
18280;SDS011;9266;51.132;17.062;2023-04-25T09:37:18;7.47;;;5.70;;
18280;SDS011;9266;51.132;17.062;2023-04-25T09:39:46;8.53;;;6.33;;
18280;SDS011;9266;51.132;17.062;2023-04-25T09:42:14;9.03;;;6.60;;
18280;SDS011;9266;51.132;17.062;2023-04-25T09:44:42;10.73;;;6.97;;
18280;SDS011;9266;51.132;17.062;2023-04-25T09:47:10;8.80;;;6.47;;
18280;SDS011;9266;51.132;17.062;2023-04-25T09:49:39;11.03;;;7.10;;
18280;SDS011;9266;51.132;17.062;2023-04-25T09:52:08;9.20;;;6.20;;
18280;SDS011;9266;51.132;17.062;2023-04-25T09:54:40;8.63;;;6.83;;
18280;SDS011;9266;51.132;17.062;2023-04-25T09:57:09;8.90;;;7.00;;
18280;SDS011;9266;51.132;17.062;2023-04-25T09:59:39;7.50;;;6.13;;
18280;SDS011;9266;51.132;17.062;2023-04-25T10:02:10;7.27;;;6.00;;
18280;SDS011;9266;51.132;17.062;2023-04-25T10:04:38;6.90;;;6.10;;
18280;SDS011;9266;51.132;17.062;2023-04-25T10:07:06;5.93;;;5.33;;
18280;SDS011;9266;51.132;17.062;2023-04-25T10:09:36;6.97;;;5.47;;
18280;SDS011;9266;51.132;17.062;2023-04-25T10:12:06;8.40;;;6.00;;
18280;SDS011;9266;51.132;17.062;2023-04-25T10:14:33;6.47;;;5.63;;
18280;SDS011;9266;51.132;17.062;2023-04-25T10:17:01;6.30;;;5.70;;
18280;SDS011;9266;51.132;17.062;2023-04-25T10:19:28;6.43;;;5.40;;
18280;SDS011;9266;51.132;17.062;2023-04-25T10:21:58;6.43;;;5.53;;
18280;SDS011;9266;51.132;17.062;2023-04-25T10:24:30;5.97;;;5.07;;
18280;SDS011;9266;51.132;17.062;2023-04-25T10:26:59;5.97;;;5.10;;
18280;SDS011;9266;51.132;17.062;2023-04-25T10:29:29;5.40;;;4.80;;
18280;SDS011;9266;51.132;17.062;2023-04-25T10:31:56;5.77;;;5.07;;
18280;SDS011;9266;51.132;17.062;2023-04-25T10:34:24;6.27;;;5.67;;
18280;SDS011;9266;51.132;17.062;2023-04-25T10:37:03;6.70;;;5.20;;
18280;SDS011;9266;51.132;17.062;2023-04-25T10:39:32;8.03;;;5.90;;
18280;SDS011;9266;51.132;17.062;2023-04-25T10:41:59;6.27;;;5.17;;
18280;SDS011;9266;51.132;17.062;2023-04-25T10:44:30;8.37;;;5.20;;
18280;SDS011;9266;51.132;17.062;2023-04-25T10:46:58;5.30;;;4.80;;
18280;SDS011;9266;51.132;17.062;2023-04-25T10:49:30;6.93;;;5.03;;
18280;SDS011;9266;51.132;17.062;2023-04-25T10:52:11;5.60;;;5.00;;
18280;SDS011;9266;51.132;17.062;2023-04-25T10:54:43;6.03;;;5.17;;
18280;SDS011;9266;51.132;17.062;2023-04-25T10:57:32;7.30;;;5.23;;
18280;SDS011;9266;51.132;17.062;2023-04-25T11:00:08;6.90;;;4.90;;
18280;SDS011;9266;51.132;17.062;2023-04-25T11:02:43;6.63;;;5.03;;
18280;SDS011;9266;51.132;17.062;2023-04-25T11:05:16;6.57;;;4.30;;
18280;SDS011;9266;51.132;17.062;2023-04-25T11:07:49;5.10;;;4.60;;
18280;SDS011;9266;51.132;17.062;2023-04-25T11:10:18;5.97;;;4.50;;
18280;SDS011;9266;51.132;17.062;2023-04-25T11:12:46;6.30;;;4.90;;
18280;SDS011;9266;51.132;17.062;2023-04-25T11:15:14;5.57;;;4.90;;
18280;SDS011;9266;51.132;17.062;2023-04-25T11:17:42;6.97;;;5.17;;
18280;SDS011;9266;51.132;17.062;2023-04-25T11:20:11;5.40;;;4.03;;
18280;SDS011;9266;51.132;17.062;2023-04-25T11:22:40;6.13;;;4.53;;
18280;SDS011;9266;51.132;17.062;2023-04-25T11:25:08;5.50;;;4.47;;
18280;SDS011;9266;51.132;17.062;2023-04-25T11:27:48;5.90;;;5.30;;
18280;SDS011;9266;51.132;17.062;2023-04-25T11:30:18;8.17;;;4.57;;
18280;SDS011;9266;51.132;17.062;2023-04-25T11:32:46;7.63;;;3.87;;
18280;SDS011;9266;51.132;17.062;2023-04-25T11:35:13;3.97;;;2.67;;
18280;SDS011;9266;51.132;17.062;2023-04-25T11:37:41;4.77;;;2.97;;
18280;SDS011;9266;51.132;17.062;2023-04-25T11:40:10;3.57;;;3.00;;
18280;SDS011;9266;51.132;17.062;2023-04-25T11:42:37;4.30;;;3.00;;
18280;SDS011;9266;51.132;17.062;2023-04-25T11:45:06;4.90;;;2.90;;
18280;SDS011;9266;51.132;17.062;2023-04-25T11:47:36;3.67;;;2.40;;
18280;SDS011;9266;51.132;17.062;2023-04-25T11:50:04;2.97;;;2.43;;
18280;SDS011;9266;51.132;17.062;2023-04-25T11:52:36;3.30;;;2.40;;
18280;SDS011;9266;51.132;17.062;2023-04-25T11:55:04;6.13;;;2.60;;
18280;SDS011;9266;51.132;17.062;2023-04-25T11:57:32;4.97;;;2.70;;
18280;SDS011;9266;51.132;17.062;2023-04-25T12:00:07;6.20;;;2.50;;
18280;SDS011;9266;51.132;17.062;2023-04-25T12:02:37;7.70;;;2.40;;
18280;SDS011;9266;51.132;17.062;2023-04-25T12:05:07;4.50;;;2.57;;
18280;SDS011;9266;51.132;17.062;2023-04-25T12:07:35;5.30;;;2.60;;
18280;SDS011;9266;51.132;17.062;2023-04-25T12:10:06;5.87;;;2.77;;
18280;SDS011;9266;51.132;17.062;2023-04-25T12:12:35;3.90;;;2.53;;
18280;SDS011;9266;51.132;17.062;2023-04-25T12:15:10;2.67;;;2.47;;
18280;SDS011;9266;51.132;17.062;2023-04-25T12:17:41;3.47;;;2.70;;
18280;SDS011;9266;51.132;17.062;2023-04-25T12:20:12;2.97;;;2.50;;
18280;SDS011;9266;51.132;17.062;2023-04-25T12:22:41;3.57;;;2.70;;
18280;SDS011;9266;51.132;17.062;2023-04-25T12:25:10;3.23;;;2.33;;
18280;SDS011;9266;51.132;17.062;2023-04-25T12:27:38;2.50;;;2.30;;
18280;SDS011;9266;51.132;17.062;2023-04-25T12:30:09;3.03;;;2.73;;
18280;SDS011;9266;51.132;17.062;2023-04-25T12:32:36;4.97;;;2.40;;
18280;SDS011;9266;51.132;17.062;2023-04-25T12:35:06;5.50;;;2.30;;
18280;SDS011;9266;51.132;17.062;2023-04-25T12:37:33;2.80;;;2.50;;
18280;SDS011;9266;51.132;17.062;2023-04-25T12:40:00;5.23;;;3.10;;
18280;SDS011;9266;51.132;17.062;2023-04-25T12:42:28;3.67;;;2.80;;
18280;SDS011;9266;51.132;17.062;2023-04-25T12:44:55;4.30;;;2.50;;
18280;SDS011;9266;51.132;17.062;2023-04-25T12:47:22;5.57;;;2.43;;
18280;SDS011;9266;51.132;17.062;2023-04-25T12:49:50;2.80;;;2.47;;
18280;SDS011;9266;51.132;17.062;2023-04-25T12:52:18;3.97;;;2.80;;
18280;SDS011;9266;51.132;17.062;2023-04-25T12:54:45;3.00;;;2.67;;
18280;SDS011;9266;51.132;17.062;2023-04-25T12:57:12;3.23;;;2.53;;
18280;SDS011;9266;51.132;17.062;2023-04-25T12:59:39;3.67;;;2.60;;
18280;SDS011;9266;51.132;17.062;2023-04-25T13:02:06;3.50;;;2.67;;
18280;SDS011;9266;51.132;17.062;2023-04-25T13:04:33;3.67;;;2.77;;
18280;SDS011;9266;51.132;17.062;2023-04-25T13:07:00;4.60;;;2.60;;
18280;SDS011;9266;51.132;17.062;2023-04-25T13:09:29;3.80;;;2.57;;
18280;SDS011;9266;51.132;17.062;2023-04-25T13:11:55;3.63;;;2.60;;
18280;SDS011;9266;51.132;17.062;2023-04-25T13:14:23;2.73;;;2.30;;
18280;SDS011;9266;51.132;17.062;2023-04-25T13:16:50;3.77;;;2.40;;
18280;SDS011;9266;51.132;17.062;2023-04-25T13:19:17;4.67;;;2.40;;
18280;SDS011;9266;51.132;17.062;2023-04-25T13:21:44;2.97;;;2.33;;
18280;SDS011;9266;51.132;17.062;2023-04-25T13:24:10;3.40;;;2.50;;
18280;SDS011;9266;51.132;17.062;2023-04-25T13:26:39;2.93;;;2.37;;
18280;SDS011;9266;51.132;17.062;2023-04-25T13:29:06;4.03;;;3.17;;
18280;SDS011;9266;51.132;17.062;2023-04-25T13:31:33;3.70;;;2.80;;
18280;SDS011;9266;51.132;17.062;2023-04-25T13:34:00;5.03;;;3.07;;
18280;SDS011;9266;51.132;17.062;2023-04-25T13:36:27;5.43;;;3.63;;
18280;SDS011;9266;51.132;17.062;2023-04-25T13:38:54;3.70;;;3.27;;
18280;SDS011;9266;51.132;17.062;2023-04-25T13:41:21;3.90;;;3.10;;
18280;SDS011;9266;51.132;17.062;2023-04-25T13:43:49;5.30;;;3.53;;
18280;SDS011;9266;51.132;17.062;2023-04-25T13:46:16;5.07;;;3.70;;
18280;SDS011;9266;51.132;17.062;2023-04-25T13:48:44;5.00;;;2.90;;
18280;SDS011;9266;51.132;17.062;2023-04-25T13:51:14;6.20;;;3.63;;
18280;SDS011;9266;51.132;17.062;2023-04-25T13:53:42;4.63;;;3.50;;
18280;SDS011;9266;51.132;17.062;2023-04-25T13:56:09;4.03;;;3.00;;
18280;SDS011;9266;51.132;17.062;2023-04-25T13:58:37;5.10;;;3.30;;
18280;SDS011;9266;51.132;17.062;2023-04-25T14:01:06;3.37;;;2.80;;
18280;SDS011;9266;51.132;17.062;2023-04-25T14:03:33;3.90;;;2.60;;
18280;SDS011;9266;51.132;17.062;2023-04-25T14:06:00;4.07;;;2.40;;
18280;SDS011;9266;51.132;17.062;2023-04-25T14:08:28;5.53;;;2.77;;
18280;SDS011;9266;51.132;17.062;2023-04-25T14:10:55;3.03;;;2.70;;
18280;SDS011;9266;51.132;17.062;2023-04-25T14:13:22;5.10;;;3.03;;
18280;SDS011;9266;51.132;17.062;2023-04-25T14:15:50;4.23;;;2.63;;
18280;SDS011;9266;51.132;17.062;2023-04-25T14:18:18;4.07;;;3.37;;
18280;SDS011;9266;51.132;17.062;2023-04-25T14:20:45;7.87;;;4.10;;
18280;SDS011;9266;51.132;17.062;2023-04-25T14:23:13;4.50;;;3.37;;
18280;SDS011;9266;51.132;17.062;2023-04-25T14:25:40;8.83;;;4.73;;
18280;SDS011;9266;51.132;17.062;2023-04-25T14:28:08;4.40;;;3.03;;
18280;SDS011;9266;51.132;17.062;2023-04-25T14:30:36;2.90;;;2.50;;
18280;SDS011;9266;51.132;17.062;2023-04-25T14:33:03;2.53;;;2.33;;
18280;SDS011;9266;51.132;17.062;2023-04-25T14:35:31;2.80;;;2.60;;
18280;SDS011;9266;51.132;17.062;2023-04-25T14:37:58;3.80;;;2.57;;
18280;SDS011;9266;51.132;17.062;2023-04-25T14:40:25;3.10;;;2.40;;
18280;SDS011;9266;51.132;17.062;2023-04-25T14:42:53;6.30;;;2.97;;
18280;SDS011;9266;51.132;17.062;2023-04-25T14:45:20;3.80;;;2.40;;
18280;SDS011;9266;51.132;17.062;2023-04-25T14:47:47;6.50;;;2.77;;
18280;SDS011;9266;51.132;17.062;2023-04-25T14:50:14;4.23;;;2.60;;
18280;SDS011;9266;51.132;17.062;2023-04-25T14:52:43;4.13;;;2.70;;
18280;SDS011;9266;51.132;17.062;2023-04-25T14:55:11;3.70;;;3.20;;